sensor_id;sensor_type;location;lat;lon;timestamp;temperature;humidity
7447;DHT22;3765;47.962;7.952;2023-05-06T00:00:10;14.50;82.80
7447;DHT22;3765;47.962;7.952;2023-05-06T00:02:39;14.50;82.60
7447;DHT22;3765;47.962;7.952;2023-05-06T00:05:08;14.60;82.90
7447;DHT22;3765;47.962;7.952;2023-05-06T00:07:37;14.60;82.80
7447;DHT22;3765;47.962;7.952;2023-05-06T00:10:06;14.70;82.80
7447;DHT22;3765;47.962;7.952;2023-05-06T00:12:34;14.70;82.70
7447;DHT22;3765;47.962;7.952;2023-05-06T00:15:03;14.70;82.70
7447;DHT22;3765;47.962;7.952;2023-05-06T00:17:32;14.70;82.70
7447;DHT22;3765;47.962;7.952;2023-05-06T00:20:01;14.80;82.70
7447;DHT22;3765;47.962;7.952;2023-05-06T00:22:29;14.80;82.70
7447;DHT22;3765;47.962;7.952;2023-05-06T00:24:57;14.70;82.70
7447;DHT22;3765;47.962;7.952;2023-05-06T00:27:26;14.80;82.70
7447;DHT22;3765;47.962;7.952;2023-05-06T00:29:55;14.70;82.70
7447;DHT22;3765;47.962;7.952;2023-05-06T00:32:23;14.70;82.70
7447;DHT22;3765;47.962;7.952;2023-05-06T00:34:53;14.60;82.80
7447;DHT22;3765;47.962;7.952;2023-05-06T00:37:21;14.70;82.80
7447;DHT22;3765;47.962;7.952;2023-05-06T00:39:50;14.60;82.70
7447;DHT22;3765;47.962;7.952;2023-05-06T00:42:18;14.60;82.60
7447;DHT22;3765;47.962;7.952;2023-05-06T00:44:48;14.50;82.80
7447;DHT22;3765;47.962;7.952;2023-05-06T00:47:17;14.60;82.90
7447;DHT22;3765;47.962;7.952;2023-05-06T00:49:46;14.40;82.70
7447;DHT22;3765;47.962;7.952;2023-05-06T00:52:17;14.40;82.80
7447;DHT22;3765;47.962;7.952;2023-05-06T00:54:45;14.40;82.80
7447;DHT22;3765;47.962;7.952;2023-05-06T00:57:14;14.40;82.80
7447;DHT22;3765;47.962;7.952;2023-05-06T00:59:43;14.40;82.80
7447;DHT22;3765;47.962;7.952;2023-05-06T01:02:11;14.40;82.80
7447;DHT22;3765;47.962;7.952;2023-05-06T01:04:39;14.50;82.90
7447;DHT22;3765;47.962;7.952;2023-05-06T01:07:20;14.50;82.70
7447;DHT22;3765;47.962;7.952;2023-05-06T01:09:56;14.40;82.70
7447;DHT22;3765;47.962;7.952;2023-05-06T01:12:29;14.40;82.80
7447;DHT22;3765;47.962;7.952;2023-05-06T01:15:02;14.40;82.80
7447;DHT22;3765;47.962;7.952;2023-05-06T01:17:38;14.40;82.90
7447;DHT22;3765;47.962;7.952;2023-05-06T01:20:10;14.50;83.10
7447;DHT22;3765;47.962;7.952;2023-05-06T01:22:38;14.50;82.90
7447;DHT22;3765;47.962;7.952;2023-05-06T01:25:17;14.50;83.10
7447;DHT22;3765;47.962;7.952;2023-05-06T01:27:50;14.50;83.00
7447;DHT22;3765;47.962;7.952;2023-05-06T01:30:23;14.50;83.10
7447;DHT22;3765;47.962;7.952;2023-05-06T01:33:09;14.50;83.00
7447;DHT22;3765;47.962;7.952;2023-05-06T01:35:56;14.50;83.10
7447;DHT22;3765;47.962;7.952;2023-05-06T01:38:37;14.60;83.00
7447;DHT22;3765;47.962;7.952;2023-05-06T01:41:17;14.60;83.10
7447;DHT22;3765;47.962;7.952;2023-05-06T01:43:54;14.60;83.10
7447;DHT22;3765;47.962;7.952;2023-05-06T01:46:31;14.60;83.00
7447;DHT22;3765;47.962;7.952;2023-05-06T01:49:07;14.60;83.00
7447;DHT22;3765;47.962;7.952;2023-05-06T01:51:37;14.60;83.00
7447;DHT22;3765;47.962;7.952;2023-05-06T01:54:08;14.60;83.00
7447;DHT22;3765;47.962;7.952;2023-05-06T01:57:01;14.40;83.00
7447;DHT22;3765;47.962;7.952;2023-05-06T01:59:40;14.30;83.20
7447;DHT22;3765;47.962;7.952;2023-05-06T02:02:11;14.30;83.20
7447;DHT22;3765;47.962;7.952;2023-05-06T02:04:54;14.30;83.30
7447;DHT22;3765;47.962;7.952;2023-05-06T02:07:26;14.20;83.30
7447;DHT22;3765;47.962;7.952;2023-05-06T02:09:58;14.10;83.40
7447;DHT22;3765;47.962;7.952;2023-05-06T02:12:36;14.00;83.50
7447;DHT22;3765;47.962;7.952;2023-05-06T02:15:07;14.00;83.60
7447;DHT22;3765;47.962;7.952;2023-05-06T02:17:38;14.00;83.70
7447;DHT22;3765;47.962;7.952;2023-05-06T02:20:13;13.90;83.80
7447;DHT22;3765;47.962;7.952;2023-05-06T02:22:46;14.00;83.90
7447;DHT22;3765;47.962;7.952;2023-05-06T02:25:16;14.00;83.90
7447;DHT22;3765;47.962;7.952;2023-05-06T02:27:56;14.00;84.10
7447;DHT22;3765;47.962;7.952;2023-05-06T02:30:31;14.10;84.20
7447;DHT22;3765;47.962;7.952;2023-05-06T02:33:02;14.20;84.10
7447;DHT22;3765;47.962;7.952;2023-05-06T02:35:35;14.30;84.00
7447;DHT22;3765;47.962;7.952;2023-05-06T02:38:04;14.20;83.90
7447;DHT22;3765;47.962;7.952;2023-05-06T02:40:35;14.20;83.90
7447;DHT22;3765;47.962;7.952;2023-05-06T02:43:28;14.20;83.90
7447;DHT22;3765;47.962;7.952;2023-05-06T02:45:57;14.20;84.00
7447;DHT22;3765;47.962;7.952;2023-05-06T02:48:28;14.20;83.90
7447;DHT22;3765;47.962;7.952;2023-05-06T02:50:59;14.10;84.00
7447;DHT22;3765;47.962;7.952;2023-05-06T02:53:31;14.10;84.10
7447;DHT22;3765;47.962;7.952;2023-05-06T02:56:16;14.10;84.00
7447;DHT22;3765;47.962;7.952;2023-05-06T02:58:51;14.00;84.10
7447;DHT22;3765;47.962;7.952;2023-05-06T03:01:22;14.00;84.20
7447;DHT22;3765;47.962;7.952;2023-05-06T03:03:56;13.90;84.20
7447;DHT22;3765;47.962;7.952;2023-05-06T03:06:30;13.90;84.20
7447;DHT22;3765;47.962;7.952;2023-05-06T03:09:00;13.90;84.30
7447;DHT22;3765;47.962;7.952;2023-05-06T03:11:37;13.90;84.30
7447;DHT22;3765;47.962;7.952;2023-05-06T03:14:25;13.90;84.30
7447;DHT22;3765;47.962;7.952;2023-05-06T03:17:00;13.90;84.30
7447;DHT22;3765;47.962;7.952;2023-05-06T03:19:30;13.90;84.40
7447;DHT22;3765;47.962;7.952;2023-05-06T03:22:00;13.80;84.30
7447;DHT22;3765;47.962;7.952;2023-05-06T03:24:32;13.90;84.30
7447;DHT22;3765;47.962;7.952;2023-05-06T03:27:03;13.80;84.30
7447;DHT22;3765;47.962;7.952;2023-05-06T03:29:33;13.70;84.30
7447;DHT22;3765;47.962;7.952;2023-05-06T03:32:12;13.60;84.40
7447;DHT22;3765;47.962;7.952;2023-05-06T03:34:44;13.60;84.40
7447;DHT22;3765;47.962;7.952;2023-05-06T03:37:29;13.50;84.50
7447;DHT22;3765;47.962;7.952;2023-05-06T03:40:16;13.40;84.50
7447;DHT22;3765;47.962;7.952;2023-05-06T03:42:53;13.30;84.60
7447;DHT22;3765;47.962;7.952;2023-05-06T03:45:35;13.30;84.70
7447;DHT22;3765;47.962;7.952;2023-05-06T03:48:13;13.20;84.70
7447;DHT22;3765;47.962;7.952;2023-05-06T03:50:43;13.20;84.80
7447;DHT22;3765;47.962;7.952;2023-05-06T03:53:15;13.10;84.80
7447;DHT22;3765;47.962;7.952;2023-05-06T03:55:47;13.10;85.00
7447;DHT22;3765;47.962;7.952;2023-05-06T03:58:33;13.10;85.10
7447;DHT22;3765;47.962;7.952;2023-05-06T04:01:16;13.10;85.20
7447;DHT22;3765;47.962;7.952;2023-05-06T04:03:47;13.10;85.20
7447;DHT22;3765;47.962;7.952;2023-05-06T04:06:18;13.00;85.30
7447;DHT22;3765;47.962;7.952;2023-05-06T04:08:52;12.90;85.20
7447;DHT22;3765;47.962;7.952;2023-05-06T04:11:25;12.90;85.30
7447;DHT22;3765;47.962;7.952;2023-05-06T04:13:59;12.90;85.40
7447;DHT22;3765;47.962;7.952;2023-05-06T04:16:33;12.90;85.40
7447;DHT22;3765;47.962;7.952;2023-05-06T04:19:03;12.90;85.40
7447;DHT22;3765;47.962;7.952;2023-05-06T04:21:52;12.90;85.50
7447;DHT22;3765;47.962;7.952;2023-05-06T04:24:20;13.00;85.40
7447;DHT22;3765;47.962;7.952;2023-05-06T04:26:57;13.10;85.40
7447;DHT22;3765;47.962;7.952;2023-05-06T04:29:30;13.10;85.30
7447;DHT22;3765;47.962;7.952;2023-05-06T04:32:10;13.10;85.40
7447;DHT22;3765;47.962;7.952;2023-05-06T04:34:44;13.20;85.20
7447;DHT22;3765;47.962;7.952;2023-05-06T04:37:16;13.10;85.20
7447;DHT22;3765;47.962;7.952;2023-05-06T04:39:48;13.20;85.20
7447;DHT22;3765;47.962;7.952;2023-05-06T04:42:16;13.20;85.20
7447;DHT22;3765;47.962;7.952;2023-05-06T04:44:47;13.10;85.10
7447;DHT22;3765;47.962;7.952;2023-05-06T04:47:18;13.10;85.10
7447;DHT22;3765;47.962;7.952;2023-05-06T04:50:09;13.10;85.10
7447;DHT22;3765;47.962;7.952;2023-05-06T04:52:39;13.10;84.90
7447;DHT22;3765;47.962;7.952;2023-05-06T04:55:30;13.10;85.00
7447;DHT22;3765;47.962;7.952;2023-05-06T04:58:10;13.20;84.90
7447;DHT22;3765;47.962;7.952;2023-05-06T05:00:48;13.20;84.90
7447;DHT22;3765;47.962;7.952;2023-05-06T05:03:36;13.30;84.80
7447;DHT22;3765;47.962;7.952;2023-05-06T05:06:09;13.30;84.60
7447;DHT22;3765;47.962;7.952;2023-05-06T05:08:39;13.40;84.50
7447;DHT22;3765;47.962;7.952;2023-05-06T05:11:11;13.50;84.50
7447;DHT22;3765;47.962;7.952;2023-05-06T05:13:52;13.60;84.30
7447;DHT22;3765;47.962;7.952;2023-05-06T05:16:42;13.70;84.10
7447;DHT22;3765;47.962;7.952;2023-05-06T05:19:16;13.80;83.90
7447;DHT22;3765;47.962;7.952;2023-05-06T05:21:47;13.90;83.80
7447;DHT22;3765;47.962;7.952;2023-05-06T05:24:18;14.00;83.70
7447;DHT22;3765;47.962;7.952;2023-05-06T05:26:50;14.10;83.50
7447;DHT22;3765;47.962;7.952;2023-05-06T05:29:22;14.20;83.20
7447;DHT22;3765;47.962;7.952;2023-05-06T05:32:03;14.20;83.30
7447;DHT22;3765;47.962;7.952;2023-05-06T05:34:35;14.40;83.20
7447;DHT22;3765;47.962;7.952;2023-05-06T05:37:04;14.50;83.00
7447;DHT22;3765;47.962;7.952;2023-05-06T05:39:36;14.60;82.80
7447;DHT22;3765;47.962;7.952;2023-05-06T05:42:09;14.70;82.60
7447;DHT22;3765;47.962;7.952;2023-05-06T05:44:37;14.70;82.40
7447;DHT22;3765;47.962;7.952;2023-05-06T05:47:11;14.80;82.20
7447;DHT22;3765;47.962;7.952;2023-05-06T05:49:55;14.90;82.10
7447;DHT22;3765;47.962;7.952;2023-05-06T05:52:32;15.10;81.80
7447;DHT22;3765;47.962;7.952;2023-05-06T05:55:04;15.20;81.60
7447;DHT22;3765;47.962;7.952;2023-05-06T05:57:39;15.30;81.30
7447;DHT22;3765;47.962;7.952;2023-05-06T06:00:12;15.30;81.30
7447;DHT22;3765;47.962;7.952;2023-05-06T06:02:57;15.30;81.10
7447;DHT22;3765;47.962;7.952;2023-05-06T06:05:34;15.40;81.00
7447;DHT22;3765;47.962;7.952;2023-05-06T06:08:04;15.40;80.80
7447;DHT22;3765;47.962;7.952;2023-05-06T06:10:35;15.40;80.80
7447;DHT22;3765;47.962;7.952;2023-05-06T06:13:09;15.30;80.80
7447;DHT22;3765;47.962;7.952;2023-05-06T06:15:39;15.40;80.50
7447;DHT22;3765;47.962;7.952;2023-05-06T06:18:13;15.50;80.20
7447;DHT22;3765;47.962;7.952;2023-05-06T06:20:54;15.60;80.30
7447;DHT22;3765;47.962;7.952;2023-05-06T06:23:37;15.70;80.30
7447;DHT22;3765;47.962;7.952;2023-05-06T06:26:10;15.90;80.40
7447;DHT22;3765;47.962;7.952;2023-05-06T06:28:42;16.10;80.10
7447;DHT22;3765;47.962;7.952;2023-05-06T06:31:15;16.20;80.00
7447;DHT22;3765;47.962;7.952;2023-05-06T06:33:45;16.40;79.80
7447;DHT22;3765;47.962;7.952;2023-05-06T06:36:31;16.60;79.50
7447;DHT22;3765;47.962;7.952;2023-05-06T06:39:02;16.60;79.20
7447;DHT22;3765;47.962;7.952;2023-05-06T06:41:33;16.80;78.70
7447;DHT22;3765;47.962;7.952;2023-05-06T06:44:04;16.90;78.60
7447;DHT22;3765;47.962;7.952;2023-05-06T06:46:34;17.10;78.30
7447;DHT22;3765;47.962;7.952;2023-05-06T06:49:09;17.30;78.00
7447;DHT22;3765;47.962;7.952;2023-05-06T06:51:53;17.20;77.30
7447;DHT22;3765;47.962;7.952;2023-05-06T06:54:25;17.00;77.30
7447;DHT22;3765;47.962;7.952;2023-05-06T06:56:56;16.90;77.50
7447;DHT22;3765;47.962;7.952;2023-05-06T06:59:33;17.00;77.60
7447;DHT22;3765;47.962;7.952;2023-05-06T07:02:08;17.00;77.60
7447;DHT22;3765;47.962;7.952;2023-05-06T07:04:52;16.90;77.70
7447;DHT22;3765;47.962;7.952;2023-05-06T07:07:35;16.80;77.50
7447;DHT22;3765;47.962;7.952;2023-05-06T07:10:20;17.40;77.90
7447;DHT22;3765;47.962;7.952;2023-05-06T07:12:52;18.00;76.90
7447;DHT22;3765;47.962;7.952;2023-05-06T07:15:26;18.00;76.00
7447;DHT22;3765;47.962;7.952;2023-05-06T07:17:54;18.00;75.90
7447;DHT22;3765;47.962;7.952;2023-05-06T07:20:29;18.10;75.90
7447;DHT22;3765;47.962;7.952;2023-05-06T07:23:13;18.10;75.80
7447;DHT22;3765;47.962;7.952;2023-05-06T07:25:44;17.80;75.90
7447;DHT22;3765;47.962;7.952;2023-05-06T07:28:13;17.80;75.70
7447;DHT22;3765;47.962;7.952;2023-05-06T07:30:46;17.80;76.10
7447;DHT22;3765;47.962;7.952;2023-05-06T07:33:17;17.80;75.80
7447;DHT22;3765;47.962;7.952;2023-05-06T07:35:54;17.40;75.40
7447;DHT22;3765;47.962;7.952;2023-05-06T07:38:29;17.10;75.90
7447;DHT22;3765;47.962;7.952;2023-05-06T07:40:58;17.20;76.40
7447;DHT22;3765;47.962;7.952;2023-05-06T07:43:31;17.40;76.50
7447;DHT22;3765;47.962;7.952;2023-05-06T07:46:04;17.90;76.20
7447;DHT22;3765;47.962;7.952;2023-05-06T07:48:41;18.10;75.60
7447;DHT22;3765;47.962;7.952;2023-05-06T07:51:13;18.20;75.40
7447;DHT22;3765;47.962;7.952;2023-05-06T07:53:47;18.20;75.40
7447;DHT22;3765;47.962;7.952;2023-05-06T07:56:23;18.20;75.30
7447;DHT22;3765;47.962;7.952;2023-05-06T07:58:53;18.40;75.30
7447;DHT22;3765;47.962;7.952;2023-05-06T08:01:29;18.30;75.30
7447;DHT22;3765;47.962;7.952;2023-05-06T08:03:59;17.90;75.20
7447;DHT22;3765;47.962;7.952;2023-05-06T08:06:32;17.80;75.30
7447;DHT22;3765;47.962;7.952;2023-05-06T08:09:04;17.70;75.30
7447;DHT22;3765;47.962;7.952;2023-05-06T08:11:53;17.70;75.40
7447;DHT22;3765;47.962;7.952;2023-05-06T08:14:33;17.80;75.50
7447;DHT22;3765;47.962;7.952;2023-05-06T08:17:06;17.90;75.30
7447;DHT22;3765;47.962;7.952;2023-05-06T08:19:37;18.40;74.90
7447;DHT22;3765;47.962;7.952;2023-05-06T08:22:10;18.40;74.30
7447;DHT22;3765;47.962;7.952;2023-05-06T08:24:59;18.80;74.20
7447;DHT22;3765;47.962;7.952;2023-05-06T08:27:29;19.10;72.60
7447;DHT22;3765;47.962;7.952;2023-05-06T08:29:59;19.20;72.90
7447;DHT22;3765;47.962;7.952;2023-05-06T08:32:32;19.30;72.50
7447;DHT22;3765;47.962;7.952;2023-05-06T08:35:05;19.50;72.10
7447;DHT22;3765;47.962;7.952;2023-05-06T08:37:47;19.80;71.50
7447;DHT22;3765;47.962;7.952;2023-05-06T08:40:21;19.60;70.60
7447;DHT22;3765;47.962;7.952;2023-05-06T08:42:54;19.30;70.60
7447;DHT22;3765;47.962;7.952;2023-05-06T08:45:31;19.30;71.00
7447;DHT22;3765;47.962;7.952;2023-05-06T08:48:10;19.20;70.40
7447;DHT22;3765;47.962;7.952;2023-05-06T08:50:41;18.80;71.10
7447;DHT22;3765;47.962;7.952;2023-05-06T08:53:13;18.70;70.60
7447;DHT22;3765;47.962;7.952;2023-05-06T08:55:52;18.90;71.20
7447;DHT22;3765;47.962;7.952;2023-05-06T08:58:29;18.80;70.50
7447;DHT22;3765;47.962;7.952;2023-05-06T09:01:09;19.10;71.20
7447;DHT22;3765;47.962;7.952;2023-05-06T09:03:39;19.40;70.50
7447;DHT22;3765;47.962;7.952;2023-05-06T09:06:13;19.80;70.40
7447;DHT22;3765;47.962;7.952;2023-05-06T09:08:44;19.60;69.50
7447;DHT22;3765;47.962;7.952;2023-05-06T09:11:25;19.50;69.30
7447;DHT22;3765;47.962;7.952;2023-05-06T09:14:10;19.30;69.30
7447;DHT22;3765;47.962;7.952;2023-05-06T09:16:47;19.40;69.10
7447;DHT22;3765;47.962;7.952;2023-05-06T09:19:18;19.80;69.10
7447;DHT22;3765;47.962;7.952;2023-05-06T09:21:53;19.80;68.00
7447;DHT22;3765;47.962;7.952;2023-05-06T09:24:24;19.70;68.30
7447;DHT22;3765;47.962;7.952;2023-05-06T09:27:12;19.70;68.20
7447;DHT22;3765;47.962;7.952;2023-05-06T09:29:59;19.90;67.50
7447;DHT22;3765;47.962;7.952;2023-05-06T09:32:30;19.90;67.50
7447;DHT22;3765;47.962;7.952;2023-05-06T09:35:09;20.10;67.70
7447;DHT22;3765;47.962;7.952;2023-05-06T09:37:48;20.40;67.40
7447;DHT22;3765;47.962;7.952;2023-05-06T09:40:25;20.60;66.70
7447;DHT22;3765;47.962;7.952;2023-05-06T09:43:09;20.30;66.10
7447;DHT22;3765;47.962;7.952;2023-05-06T09:45:45;20.20;66.40
7447;DHT22;3765;47.962;7.952;2023-05-06T09:48:17;20.30;65.50
7447;DHT22;3765;47.962;7.952;2023-05-06T09:50:48;20.20;66.10
7447;DHT22;3765;47.962;7.952;2023-05-06T09:53:19;20.10;65.40
7447;DHT22;3765;47.962;7.952;2023-05-06T09:55:53;19.90;65.40
7447;DHT22;3765;47.962;7.952;2023-05-06T09:58:30;20.00;65.80
7447;DHT22;3765;47.962;7.952;2023-05-06T10:00:59;20.30;65.80
7447;DHT22;3765;47.962;7.952;2023-05-06T10:03:31;20.10;65.10
7447;DHT22;3765;47.962;7.952;2023-05-06T10:06:11;20.40;65.70
7447;DHT22;3765;47.962;7.952;2023-05-06T10:08:45;20.10;64.60
7447;DHT22;3765;47.962;7.952;2023-05-06T10:11:16;20.00;64.90
7447;DHT22;3765;47.962;7.952;2023-05-06T10:14:13;20.10;64.60
7447;DHT22;3765;47.962;7.952;2023-05-06T10:16:45;20.10;64.50
7447;DHT22;3765;47.962;7.952;2023-05-06T10:19:22;20.40;64.00
7447;DHT22;3765;47.962;7.952;2023-05-06T10:22:00;20.80;63.60
7447;DHT22;3765;47.962;7.952;2023-05-06T10:24:40;21.10;63.50
7447;DHT22;3765;47.962;7.952;2023-05-06T10:27:17;21.50;63.10
7447;DHT22;3765;47.962;7.952;2023-05-06T10:29:52;21.30;62.40
7447;DHT22;3765;47.962;7.952;2023-05-06T10:32:30;21.50;62.30
7447;DHT22;3765;47.962;7.952;2023-05-06T10:35:04;21.80;61.50
7447;DHT22;3765;47.962;7.952;2023-05-06T10:37:39;21.90;60.80
7447;DHT22;3765;47.962;7.952;2023-05-06T10:40:17;21.90;60.80
7447;DHT22;3765;47.962;7.952;2023-05-06T10:42:51;22.00;60.50
7447;DHT22;3765;47.962;7.952;2023-05-06T10:45:24;22.00;60.40
7447;DHT22;3765;47.962;7.952;2023-05-06T10:48:08;22.10;60.10
7447;DHT22;3765;47.962;7.952;2023-05-06T10:50:37;21.90;60.00
7447;DHT22;3765;47.962;7.952;2023-05-06T10:53:12;22.30;59.50
7447;DHT22;3765;47.962;7.952;2023-05-06T10:55:41;22.40;59.40
7447;DHT22;3765;47.962;7.952;2023-05-06T10:58:13;22.60;58.50
7447;DHT22;3765;47.962;7.952;2023-05-06T11:00:59;22.50;58.40
7447;DHT22;3765;47.962;7.952;2023-05-06T11:03:32;22.50;58.20
7447;DHT22;3765;47.962;7.952;2023-05-06T11:06:00;22.70;58.00
7447;DHT22;3765;47.962;7.952;2023-05-06T11:08:28;22.80;57.10
7447;DHT22;3765;47.962;7.952;2023-05-06T11:10:56;22.60;57.20
7447;DHT22;3765;47.962;7.952;2023-05-06T11:13:26;22.20;57.30
7447;DHT22;3765;47.962;7.952;2023-05-06T11:15:56;22.10;57.80
7447;DHT22;3765;47.962;7.952;2023-05-06T11:18:42;22.30;57.90
7447;DHT22;3765;47.962;7.952;2023-05-06T11:21:37;22.50;57.70
7447;DHT22;3765;47.962;7.952;2023-05-06T11:24:07;22.60;56.20
7447;DHT22;3765;47.962;7.952;2023-05-06T11:26:35;22.20;57.20
7447;DHT22;3765;47.962;7.952;2023-05-06T11:29:04;22.50;57.50
7447;DHT22;3765;47.962;7.952;2023-05-06T11:31:39;22.80;57.20
7447;DHT22;3765;47.962;7.952;2023-05-06T11:34:11;23.00;56.70
7447;DHT22;3765;47.962;7.952;2023-05-06T11:36:48;22.70;56.40
7447;DHT22;3765;47.962;7.952;2023-05-06T11:39:16;22.60;56.60
7447;DHT22;3765;47.962;7.952;2023-05-06T11:41:45;23.00;56.30
7447;DHT22;3765;47.962;7.952;2023-05-06T11:44:24;23.50;56.10
7447;DHT22;3765;47.962;7.952;2023-05-06T11:46:57;23.60;55.50
7447;DHT22;3765;47.962;7.952;2023-05-06T11:49:26;23.80;54.80
7447;DHT22;3765;47.962;7.952;2023-05-06T11:51:55;23.50;54.20
7447;DHT22;3765;47.962;7.952;2023-05-06T11:54:25;23.60;54.70
7447;DHT22;3765;47.962;7.952;2023-05-06T11:56:54;23.90;54.50
7447;DHT22;3765;47.962;7.952;2023-05-06T11:59:28;24.20;54.00
7447;DHT22;3765;47.962;7.952;2023-05-06T12:01:59;24.20;53.60
7447;DHT22;3765;47.962;7.952;2023-05-06T12:04:35;24.00;53.20
7447;DHT22;3765;47.962;7.952;2023-05-06T12:07:05;24.10;52.70
7447;DHT22;3765;47.962;7.952;2023-05-06T12:09:34;23.90;52.80
7447;DHT22;3765;47.962;7.952;2023-05-06T12:12:03;23.60;53.30
7447;DHT22;3765;47.962;7.952;2023-05-06T12:14:32;23.90;52.90
7447;DHT22;3765;47.962;7.952;2023-05-06T12:17:02;24.10;52.80
7447;DHT22;3765;47.962;7.952;2023-05-06T12:19:31;24.00;52.30
7447;DHT22;3765;47.962;7.952;2023-05-06T12:22:13;24.00;52.30
7447;DHT22;3765;47.962;7.952;2023-05-06T12:24:42;23.90;51.80
7447;DHT22;3765;47.962;7.952;2023-05-06T12:27:10;23.50;52.30
7447;DHT22;3765;47.962;7.952;2023-05-06T12:29:39;23.70;52.20
7447;DHT22;3765;47.962;7.952;2023-05-06T12:32:12;23.60;51.70
7447;DHT22;3765;47.962;7.952;2023-05-06T12:34:42;23.90;52.10
7447;DHT22;3765;47.962;7.952;2023-05-06T12:37:27;24.30;51.00
7447;DHT22;3765;47.962;7.952;2023-05-06T12:39:56;24.70;50.90
7447;DHT22;3765;47.962;7.952;2023-05-06T12:42:29;24.80;50.00
7447;DHT22;3765;47.962;7.952;2023-05-06T12:44:57;24.60;50.00
7447;DHT22;3765;47.962;7.952;2023-05-06T12:47:51;24.30;50.60
7447;DHT22;3765;47.962;7.952;2023-05-06T12:50:32;24.00;49.90
7447;DHT22;3765;47.962;7.952;2023-05-06T12:53:01;24.20;50.60
7447;DHT22;3765;47.962;7.952;2023-05-06T12:55:31;24.60;49.90
7447;DHT22;3765;47.962;7.952;2023-05-06T12:57:59;24.70;49.70
7447;DHT22;3765;47.962;7.952;2023-05-06T13:00:28;25.20;49.50
7447;DHT22;3765;47.962;7.952;2023-05-06T13:02:58;25.30;48.50
7447;DHT22;3765;47.962;7.952;2023-05-06T13:05:26;25.30;48.40
7447;DHT22;3765;47.962;7.952;2023-05-06T13:07:54;25.20;48.30
7447;DHT22;3765;47.962;7.952;2023-05-06T13:10:23;25.20;48.30
7447;DHT22;3765;47.962;7.952;2023-05-06T13:12:51;25.20;47.60
7447;DHT22;3765;47.962;7.952;2023-05-06T13:15:19;25.30;47.40
7447;DHT22;3765;47.962;7.952;2023-05-06T13:17:48;25.60;47.40
7447;DHT22;3765;47.962;7.952;2023-05-06T13:20:25;25.90;46.80
7447;DHT22;3765;47.962;7.952;2023-05-06T13:23:18;26.20;46.50
7447;DHT22;3765;47.962;7.952;2023-05-06T13:25:56;26.00;45.60
7447;DHT22;3765;47.962;7.952;2023-05-06T13:28:35;25.60;45.70
7447;DHT22;3765;47.962;7.952;2023-05-06T13:31:48;24.60;46.00
7447;DHT22;3765;47.962;7.952;2023-05-06T13:34:31;24.40;46.70
7447;DHT22;3765;47.962;7.952;2023-05-06T13:37:00;24.80;45.60
7447;DHT22;3765;47.962;7.952;2023-05-06T13:39:29;25.10;46.00
7447;DHT22;3765;47.962;7.952;2023-05-06T13:41:57;25.60;45.20
7447;DHT22;3765;47.962;7.952;2023-05-06T13:44:25;24.90;45.20
7447;DHT22;3765;47.962;7.952;2023-05-06T13:46:53;24.80;45.60
7447;DHT22;3765;47.962;7.952;2023-05-06T13:49:22;25.20;45.80
7447;DHT22;3765;47.962;7.952;2023-05-06T13:51:50;26.10;45.40
7447;DHT22;3765;47.962;7.952;2023-05-06T13:54:20;25.70;44.80
7447;DHT22;3765;47.962;7.952;2023-05-06T13:56:48;25.80;44.90
7447;DHT22;3765;47.962;7.952;2023-05-06T13:59:17;25.80;44.40
7447;DHT22;3765;47.962;7.952;2023-05-06T14:01:46;26.20;44.50
7447;DHT22;3765;47.962;7.952;2023-05-06T14:04:15;26.40;43.50
7447;DHT22;3765;47.962;7.952;2023-05-06T14:06:44;26.20;44.20
7447;DHT22;3765;47.962;7.952;2023-05-06T14:09:12;26.40;43.00
7447;DHT22;3765;47.962;7.952;2023-05-06T14:11:41;26.00;43.20
7447;DHT22;3765;47.962;7.952;2023-05-06T14:14:09;26.20;43.30
7447;DHT22;3765;47.962;7.952;2023-05-06T14:16:37;26.40;42.30
7447;DHT22;3765;47.962;7.952;2023-05-06T14:19:06;25.90;42.30
7447;DHT22;3765;47.962;7.952;2023-05-06T14:21:34;25.50;43.00
7447;DHT22;3765;47.962;7.952;2023-05-06T14:24:02;25.80;42.70
7447;DHT22;3765;47.962;7.952;2023-05-06T14:26:33;26.10;42.40
7447;DHT22;3765;47.962;7.952;2023-05-06T14:29:03;26.20;42.60
7447;DHT22;3765;47.962;7.952;2023-05-06T14:31:32;26.30;42.00
7447;DHT22;3765;47.962;7.952;2023-05-06T14:34:01;26.20;42.20
7447;DHT22;3765;47.962;7.952;2023-05-06T14:36:29;26.30;41.70
7447;DHT22;3765;47.962;7.952;2023-05-06T14:38:57;26.30;42.40
7447;DHT22;3765;47.962;7.952;2023-05-06T14:41:25;26.70;42.20
7447;DHT22;3765;47.962;7.952;2023-05-06T14:43:53;27.40;41.60
7447;DHT22;3765;47.962;7.952;2023-05-06T14:46:23;27.70;40.10
7447;DHT22;3765;47.962;7.952;2023-05-06T14:48:55;27.00;40.90
7447;DHT22;3765;47.962;7.952;2023-05-06T14:51:23;27.00;40.70
7447;DHT22;3765;47.962;7.952;2023-05-06T14:53:51;26.50;39.90
7447;DHT22;3765;47.962;7.952;2023-05-06T14:56:19;26.60;40.90
7447;DHT22;3765;47.962;7.952;2023-05-06T14:58:48;26.90;41.00
7447;DHT22;3765;47.962;7.952;2023-05-06T15:01:16;27.40;40.90
7447;DHT22;3765;47.962;7.952;2023-05-06T15:03:45;27.40;40.60
7447;DHT22;3765;47.962;7.952;2023-05-06T15:06:13;27.50;40.50
7447;DHT22;3765;47.962;7.952;2023-05-06T15:08:42;27.60;40.30
7447;DHT22;3765;47.962;7.952;2023-05-06T15:11:10;27.00;40.10
7447;DHT22;3765;47.962;7.952;2023-05-06T15:13:38;26.80;40.20
7447;DHT22;3765;47.962;7.952;2023-05-06T15:16:06;26.80;40.10
7447;DHT22;3765;47.962;7.952;2023-05-06T15:18:37;26.50;40.30
7447;DHT22;3765;47.962;7.952;2023-05-06T15:21:09;26.30;40.90
7447;DHT22;3765;47.962;7.952;2023-05-06T15:23:39;26.30;40.70
7447;DHT22;3765;47.962;7.952;2023-05-06T15:26:07;25.90;40.80
7447;DHT22;3765;47.962;7.952;2023-05-06T15:28:35;25.40;41.20
7447;DHT22;3765;47.962;7.952;2023-05-06T15:31:03;25.10;41.60
7447;DHT22;3765;47.962;7.952;2023-05-06T15:33:32;24.80;41.80
7447;DHT22;3765;47.962;7.952;2023-05-06T15:36:00;24.20;42.30
7447;DHT22;3765;47.962;7.952;2023-05-06T15:38:57;24.10;42.80
7447;DHT22;3765;47.962;7.952;2023-05-06T15:41:27;24.50;43.20
7447;DHT22;3765;47.962;7.952;2023-05-06T15:43:57;24.30;43.50
7447;DHT22;3765;47.962;7.952;2023-05-06T15:46:26;24.30;43.70
7447;DHT22;3765;47.962;7.952;2023-05-06T15:48:54;24.30;43.90
7447;DHT22;3765;47.962;7.952;2023-05-06T15:51:43;24.20;44.10
7447;DHT22;3765;47.962;7.952;2023-05-06T15:54:14;24.10;44.20
7447;DHT22;3765;47.962;7.952;2023-05-06T15:56:44;24.30;44.40
7447;DHT22;3765;47.962;7.952;2023-05-06T15:59:13;23.70;44.50
7447;DHT22;3765;47.962;7.952;2023-05-06T16:01:41;23.50;44.80
7447;DHT22;3765;47.962;7.952;2023-05-06T16:04:29;23.30;45.20
7447;DHT22;3765;47.962;7.952;2023-05-06T16:06:58;23.40;45.10
7447;DHT22;3765;47.962;7.952;2023-05-06T16:09:28;23.50;45.10
7447;DHT22;3765;47.962;7.952;2023-05-06T16:11:56;23.80;45.00
7447;DHT22;3765;47.962;7.952;2023-05-06T16:14:24;23.90;45.00
7447;DHT22;3765;47.962;7.952;2023-05-06T16:16:52;23.80;44.80
7447;DHT22;3765;47.962;7.952;2023-05-06T16:19:20;23.90;45.00
7447;DHT22;3765;47.962;7.952;2023-05-06T16:21:49;24.00;44.80
7447;DHT22;3765;47.962;7.952;2023-05-06T16:24:18;24.30;45.10
7447;DHT22;3765;47.962;7.952;2023-05-06T16:26:48;24.50;44.90
7447;DHT22;3765;47.962;7.952;2023-05-06T16:29:16;25.50;44.40
7447;DHT22;3765;47.962;7.952;2023-05-06T16:31:47;26.30;43.40
7447;DHT22;3765;47.962;7.952;2023-05-06T16:34:15;26.80;42.60
7447;DHT22;3765;47.962;7.952;2023-05-06T16:36:43;27.00;41.80
7447;DHT22;3765;47.962;7.952;2023-05-06T16:39:11;28.10;41.40
7447;DHT22;3765;47.962;7.952;2023-05-06T16:41:40;29.30;40.30